sensor_id;sensor_type;location;lat;lon;timestamp;temperature;humidity
2300;DHT22;1158;48.750;9.078;2023-11-19T00:00:45;7.30;99.90
2300;DHT22;1158;48.750;9.078;2023-11-19T00:03:12;7.40;99.90
2300;DHT22;1158;48.750;9.078;2023-11-19T00:05:40;7.40;99.90
2300;DHT22;1158;48.750;9.078;2023-11-19T00:08:08;7.50;99.90
2300;DHT22;1158;48.750;9.078;2023-11-19T00:10:35;7.50;99.90
2300;DHT22;1158;48.750;9.078;2023-11-19T00:13:01;7.70;99.90
2300;DHT22;1158;48.750;9.078;2023-11-19T00:15:29;7.70;99.90
2300;DHT22;1158;48.750;9.078;2023-11-19T00:17:56;7.70;99.90
2300;DHT22;1158;48.750;9.078;2023-11-19T00:20:23;7.70;99.90
2300;DHT22;1158;48.750;9.078;2023-11-19T00:22:51;7.80;99.90
2300;DHT22;1158;48.750;9.078;2023-11-19T00:25:18;7.80;99.90
2300;DHT22;1158;48.750;9.078;2023-11-19T00:27:44;7.80;99.90
2300;DHT22;1158;48.750;9.078;2023-11-19T00:30:12;7.80;99.90
2300;DHT22;1158;48.750;9.078;2023-11-19T00:32:39;7.80;99.90
2300;DHT22;1158;48.750;9.078;2023-11-19T00:35:07;7.90;99.90
2300;DHT22;1158;48.750;9.078;2023-11-19T00:37:35;7.90;99.90
2300;DHT22;1158;48.750;9.078;2023-11-19T00:40:04;7.90;99.90
2300;DHT22;1158;48.750;9.078;2023-11-19T00:42:31;8.00;99.90
2300;DHT22;1158;48.750;9.078;2023-11-19T00:44:58;8.00;99.90
2300;DHT22;1158;48.750;9.078;2023-11-19T00:47:26;8.00;99.90
2300;DHT22;1158;48.750;9.078;2023-11-19T00:49:53;8.10;99.90
2300;DHT22;1158;48.750;9.078;2023-11-19T00:52:20;8.00;99.90
2300;DHT22;1158;48.750;9.078;2023-11-19T00:54:47;8.10;99.90
2300;DHT22;1158;48.750;9.078;2023-11-19T00:57:15;8.20;99.90
2300;DHT22;1158;48.750;9.078;2023-11-19T00:59:42;8.20;99.90
2300;DHT22;1158;48.750;9.078;2023-11-19T01:02:09;8.20;99.90
2300;DHT22;1158;48.750;9.078;2023-11-19T01:04:36;8.20;99.90
2300;DHT22;1158;48.750;9.078;2023-11-19T01:07:04;8.20;99.90
2300;DHT22;1158;48.750;9.078;2023-11-19T01:09:31;8.30;99.90
2300;DHT22;1158;48.750;9.078;2023-11-19T01:12:00;8.30;99.90
2300;DHT22;1158;48.750;9.078;2023-11-19T01:14:28;8.40;99.90
2300;DHT22;1158;48.750;9.078;2023-11-19T01:16:55;8.40;99.90
2300;DHT22;1158;48.750;9.078;2023-11-19T01:19:22;8.40;99.90
2300;DHT22;1158;48.750;9.078;2023-11-19T01:21:49;8.50;99.90
2300;DHT22;1158;48.750;9.078;2023-11-19T01:24:16;8.50;99.90
2300;DHT22;1158;48.750;9.078;2023-11-19T01:26:43;8.50;99.90
2300;DHT22;1158;48.750;9.078;2023-11-19T01:29:12;8.60;99.90
2300;DHT22;1158;48.750;9.078;2023-11-19T01:31:41;8.60;99.90
2300;DHT22;1158;48.750;9.078;2023-11-19T01:34:07;8.60;99.90
2300;DHT22;1158;48.750;9.078;2023-11-19T01:36:34;8.60;99.90
2300;DHT22;1158;48.750;9.078;2023-11-19T01:39:04;8.60;99.90
2300;DHT22;1158;48.750;9.078;2023-11-19T01:41:34;8.70;99.90
2300;DHT22;1158;48.750;9.078;2023-11-19T01:44:01;8.60;99.90
2300;DHT22;1158;48.750;9.078;2023-11-19T01:46:28;8.70;99.90
2300;DHT22;1158;48.750;9.078;2023-11-19T01:48:56;8.70;99.90
2300;DHT22;1158;48.750;9.078;2023-11-19T01:51:23;8.70;99.90
2300;DHT22;1158;48.750;9.078;2023-11-19T01:53:50;8.70;99.90
2300;DHT22;1158;48.750;9.078;2023-11-19T01:56:17;8.80;99.90
2300;DHT22;1158;48.750;9.078;2023-11-19T01:58:45;8.80;99.90
2300;DHT22;1158;48.750;9.078;2023-11-19T02:01:13;8.80;99.90
2300;DHT22;1158;48.750;9.078;2023-11-19T02:03:41;8.80;99.90
2300;DHT22;1158;48.750;9.078;2023-11-19T02:06:09;8.80;99.90
2300;DHT22;1158;48.750;9.078;2023-11-19T02:08:36;8.80;99.90
2300;DHT22;1158;48.750;9.078;2023-11-19T02:11:04;8.80;99.90
2300;DHT22;1158;48.750;9.078;2023-11-19T02:13:32;8.80;99.90
2300;DHT22;1158;48.750;9.078;2023-11-19T02:15:59;8.90;99.90
2300;DHT22;1158;48.750;9.078;2023-11-19T02:18:28;8.90;99.90
2300;DHT22;1158;48.750;9.078;2023-11-19T02:20:55;8.90;99.90
2300;DHT22;1158;48.750;9.078;2023-11-19T02:23:24;8.90;99.90
2300;DHT22;1158;48.750;9.078;2023-11-19T02:26:02;9.00;99.90
2300;DHT22;1158;48.750;9.078;2023-11-19T02:28:30;8.90;99.90
2300;DHT22;1158;48.750;9.078;2023-11-19T02:30:58;8.90;99.90
2300;DHT22;1158;48.750;9.078;2023-11-19T02:33:25;9.00;99.90
2300;DHT22;1158;48.750;9.078;2023-11-19T02:35:51;9.00;99.90
2300;DHT22;1158;48.750;9.078;2023-11-19T02:38:18;9.00;99.90
2300;DHT22;1158;48.750;9.078;2023-11-19T02:40:47;9.00;99.90
2300;DHT22;1158;48.750;9.078;2023-11-19T02:43:14;9.00;99.90
2300;DHT22;1158;48.750;9.078;2023-11-19T02:45:42;9.10;99.90
2300;DHT22;1158;48.750;9.078;2023-11-19T02:48:11;9.10;99.90
2300;DHT22;1158;48.750;9.078;2023-11-19T02:50:37;9.10;99.90
2300;DHT22;1158;48.750;9.078;2023-11-19T02:53:04;9.10;99.90
2300;DHT22;1158;48.750;9.078;2023-11-19T02:55:32;9.10;99.90
2300;DHT22;1158;48.750;9.078;2023-11-19T02:58:03;9.10;99.90
2300;DHT22;1158;48.750;9.078;2023-11-19T03:00:35;9.10;99.90
2300;DHT22;1158;48.750;9.078;2023-11-19T03:03:09;9.10;99.90
2300;DHT22;1158;48.750;9.078;2023-11-19T03:05:45;9.10;99.90
2300;DHT22;1158;48.750;9.078;2023-11-19T03:08:13;9.20;99.90
2300;DHT22;1158;48.750;9.078;2023-11-19T03:10:40;9.20;99.90
2300;DHT22;1158;48.750;9.078;2023-11-19T03:13:11;9.20;99.90
2300;DHT22;1158;48.750;9.078;2023-11-19T03:15:39;9.30;99.90
2300;DHT22;1158;48.750;9.078;2023-11-19T03:18:06;9.30;99.90
2300;DHT22;1158;48.750;9.078;2023-11-19T03:20:34;9.30;99.90
2300;DHT22;1158;48.750;9.078;2023-11-19T03:23:01;9.30;99.90
2300;DHT22;1158;48.750;9.078;2023-11-19T03:25:28;9.20;99.90
2300;DHT22;1158;48.750;9.078;2023-11-19T03:27:59;9.30;99.90
2300;DHT22;1158;48.750;9.078;2023-11-19T03:30:26;9.30;99.90
2300;DHT22;1158;48.750;9.078;2023-11-19T03:32:53;9.30;99.90
2300;DHT22;1158;48.750;9.078;2023-11-19T03:35:20;9.30;99.90
2300;DHT22;1158;48.750;9.078;2023-11-19T03:37:48;9.30;99.90
2300;DHT22;1158;48.750;9.078;2023-11-19T03:40:15;9.30;99.90
2300;DHT22;1158;48.750;9.078;2023-11-19T03:42:41;9.30;99.90
2300;DHT22;1158;48.750;9.078;2023-11-19T03:45:09;9.30;99.90
2300;DHT22;1158;48.750;9.078;2023-11-19T03:47:37;9.40;99.90
2300;DHT22;1158;48.750;9.078;2023-11-19T03:50:05;9.40;99.90
2300;DHT22;1158;48.750;9.078;2023-11-19T03:52:32;9.40;99.90
2300;DHT22;1158;48.750;9.078;2023-11-19T03:55:01;9.50;99.90
2300;DHT22;1158;48.750;9.078;2023-11-19T03:57:28;9.50;99.90
2300;DHT22;1158;48.750;9.078;2023-11-19T03:59:55;9.50;99.90
2300;DHT22;1158;48.750;9.078;2023-11-19T04:02:25;9.50;99.90
2300;DHT22;1158;48.750;9.078;2023-11-19T04:04:54;9.50;99.90
2300;DHT22;1158;48.750;9.078;2023-11-19T04:07:21;9.40;99.90
2300;DHT22;1158;48.750;9.078;2023-11-19T04:09:47;9.50;99.90
2300;DHT22;1158;48.750;9.078;2023-11-19T04:12:16;9.50;99.90
2300;DHT22;1158;48.750;9.078;2023-11-19T04:14:42;9.50;99.90
2300;DHT22;1158;48.750;9.078;2023-11-19T04:17:09;9.50;99.90
2300;DHT22;1158;48.750;9.078;2023-11-19T04:19:36;9.50;99.90
2300;DHT22;1158;48.750;9.078;2023-11-19T04:22:03;9.50;99.90
2300;DHT22;1158;48.750;9.078;2023-11-19T04:24:30;9.40;99.90
2300;DHT22;1158;48.750;9.078;2023-11-19T04:26:56;9.50;99.90
2300;DHT22;1158;48.750;9.078;2023-11-19T04:29:25;9.50;99.90
2300;DHT22;1158;48.750;9.078;2023-11-19T04:31:51;9.50;99.90
2300;DHT22;1158;48.750;9.078;2023-11-19T04:34:18;9.50;99.90
2300;DHT22;1158;48.750;9.078;2023-11-19T04:36:53;9.60;99.90
2300;DHT22;1158;48.750;9.078;2023-11-19T04:39:20;9.60;99.90
2300;DHT22;1158;48.750;9.078;2023-11-19T04:41:48;9.60;99.90
2300;DHT22;1158;48.750;9.078;2023-11-19T04:44:15;9.60;99.90
2300;DHT22;1158;48.750;9.078;2023-11-19T04:46:44;9.70;99.90
2300;DHT22;1158;48.750;9.078;2023-11-19T04:49:12;9.70;99.90
2300;DHT22;1158;48.750;9.078;2023-11-19T04:51:39;9.60;99.90
2300;DHT22;1158;48.750;9.078;2023-11-19T04:54:07;9.70;99.90
2300;DHT22;1158;48.750;9.078;2023-11-19T04:56:34;9.70;99.90
2300;DHT22;1158;48.750;9.078;2023-11-19T04:59:01;9.70;99.90
2300;DHT22;1158;48.750;9.078;2023-11-19T05:01:28;9.80;99.90
2300;DHT22;1158;48.750;9.078;2023-11-19T05:03:57;9.80;99.90
2300;DHT22;1158;48.750;9.078;2023-11-19T05:06:26;9.80;99.90
2300;DHT22;1158;48.750;9.078;2023-11-19T05:08:53;9.80;99.90
2300;DHT22;1158;48.750;9.078;2023-11-19T05:11:20;9.80;99.90
2300;DHT22;1158;48.750;9.078;2023-11-19T05:13:47;9.80;99.90
2300;DHT22;1158;48.750;9.078;2023-11-19T05:16:13;9.90;99.90
2300;DHT22;1158;48.750;9.078;2023-11-19T05:18:40;9.90;99.90
2300;DHT22;1158;48.750;9.078;2023-11-19T05:21:09;9.90;99.90
2300;DHT22;1158;48.750;9.078;2023-11-19T05:23:35;9.90;99.90
2300;DHT22;1158;48.750;9.078;2023-11-19T05:26:02;9.90;99.90
2300;DHT22;1158;48.750;9.078;2023-11-19T05:28:29;9.90;99.90
2300;DHT22;1158;48.750;9.078;2023-11-19T05:30:55;10.00;99.90
2300;DHT22;1158;48.750;9.078;2023-11-19T05:33:22;10.00;99.90
2300;DHT22;1158;48.750;9.078;2023-11-19T05:35:49;10.00;99.90
2300;DHT22;1158;48.750;9.078;2023-11-19T05:38:17;10.00;99.90
2300;DHT22;1158;48.750;9.078;2023-11-19T05:40:44;10.00;99.90
2300;DHT22;1158;48.750;9.078;2023-11-19T05:43:10;10.00;99.90
2300;DHT22;1158;48.750;9.078;2023-11-19T05:45:37;10.00;99.90
2300;DHT22;1158;48.750;9.078;2023-11-19T05:48:04;10.00;99.90
2300;DHT22;1158;48.750;9.078;2023-11-19T05:50:31;10.00;99.90
2300;DHT22;1158;48.750;9.078;2023-11-19T05:52:57;10.00;99.90
2300;DHT22;1158;48.750;9.078;2023-11-19T05:55:25;10.00;99.90
2300;DHT22;1158;48.750;9.078;2023-11-19T05:57:53;10.10;99.90
2300;DHT22;1158;48.750;9.078;2023-11-19T06:00:20;10.10;99.90
2300;DHT22;1158;48.750;9.078;2023-11-19T06:02:47;10.10;99.90
2300;DHT22;1158;48.750;9.078;2023-11-19T06:05:13;10.10;99.90
2300;DHT22;1158;48.750;9.078;2023-11-19T06:07:40;10.10;99.90
2300;DHT22;1158;48.750;9.078;2023-11-19T06:10:07;10.10;99.90
2300;DHT22;1158;48.750;9.078;2023-11-19T06:12:36;10.10;99.90
2300;DHT22;1158;48.750;9.078;2023-11-19T06:15:07;10.10;99.90
2300;DHT22;1158;48.750;9.078;2023-11-19T06:17:34;10.10;99.90
2300;DHT22;1158;48.750;9.078;2023-11-19T06:20:01;10.10;99.90
2300;DHT22;1158;48.750;9.078;2023-11-19T06:22:29;10.10;99.90
2300;DHT22;1158;48.750;9.078;2023-11-19T06:24:56;10.10;99.90
2300;DHT22;1158;48.750;9.078;2023-11-19T06:27:25;10.10;99.90
2300;DHT22;1158;48.750;9.078;2023-11-19T06:29:53;10.10;99.90
2300;DHT22;1158;48.750;9.078;2023-11-19T06:32:20;10.10;99.90
2300;DHT22;1158;48.750;9.078;2023-11-19T06:34:47;10.20;99.90
2300;DHT22;1158;48.750;9.078;2023-11-19T06:37:14;10.10;99.90
2300;DHT22;1158;48.750;9.078;2023-11-19T06:39:40;10.20;99.90
2300;DHT22;1158;48.750;9.078;2023-11-19T06:42:07;10.20;99.90
2300;DHT22;1158;48.750;9.078;2023-11-19T06:44:34;10.10;99.90
2300;DHT22;1158;48.750;9.078;2023-11-19T06:47:02;10.10;99.90
2300;DHT22;1158;48.750;9.078;2023-11-19T06:49:29;10.10;99.90
2300;DHT22;1158;48.750;9.078;2023-11-19T06:51:56;10.20;99.90
2300;DHT22;1158;48.750;9.078;2023-11-19T06:54:22;10.10;99.90
2300;DHT22;1158;48.750;9.078;2023-11-19T06:56:49;10.20;99.90
2300;DHT22;1158;48.750;9.078;2023-11-19T06:59:16;10.20;99.90
2300;DHT22;1158;48.750;9.078;2023-11-19T07:01:42;10.20;99.90
2300;DHT22;1158;48.750;9.078;2023-11-19T07:04:12;10.20;99.90
2300;DHT22;1158;48.750;9.078;2023-11-19T07:06:38;10.20;99.90
2300;DHT22;1158;48.750;9.078;2023-11-19T07:09:06;10.20;99.90
2300;DHT22;1158;48.750;9.078;2023-11-19T07:11:36;10.20;99.90
2300;DHT22;1158;48.750;9.078;2023-11-19T07:14:04;10.30;99.90
2300;DHT22;1158;48.750;9.078;2023-11-19T07:16:31;10.30;99.90
2300;DHT22;1158;48.750;9.078;2023-11-19T07:18:58;10.30;99.90
2300;DHT22;1158;48.750;9.078;2023-11-19T07:21:27;10.30;99.90
2300;DHT22;1158;48.750;9.078;2023-11-19T07:23:54;10.30;99.90
2300;DHT22;1158;48.750;9.078;2023-11-19T07:26:21;10.30;99.90
2300;DHT22;1158;48.750;9.078;2023-11-19T07:28:48;10.30;99.90
2300;DHT22;1158;48.750;9.078;2023-11-19T07:31:15;10.30;99.90
2300;DHT22;1158;48.750;9.078;2023-11-19T07:33:42;10.30;99.90
2300;DHT22;1158;48.750;9.078;2023-11-19T07:36:09;10.30;99.90
2300;DHT22;1158;48.750;9.078;2023-11-19T07:38:38;10.30;99.90
2300;DHT22;1158;48.750;9.078;2023-11-19T07:41:05;10.30;99.90
2300;DHT22;1158;48.750;9.078;2023-11-19T07:43:34;10.30;99.90
2300;DHT22;1158;48.750;9.078;2023-11-19T07:46:01;10.30;99.90
2300;DHT22;1158;48.750;9.078;2023-11-19T07:48:29;10.30;99.90
2300;DHT22;1158;48.750;9.078;2023-11-19T07:50:56;10.30;99.90
2300;DHT22;1158;48.750;9.078;2023-11-19T07:53:22;10.40;99.90
2300;DHT22;1158;48.750;9.078;2023-11-19T07:55:50;10.40;99.90
2300;DHT22;1158;48.750;9.078;2023-11-19T07:58:17;10.40;99.90
2300;DHT22;1158;48.750;9.078;2023-11-19T08:00:44;10.50;99.90
2300;DHT22;1158;48.750;9.078;2023-11-19T08:03:10;10.50;99.90
2300;DHT22;1158;48.750;9.078;2023-11-19T08:05:37;10.40;99.90
2300;DHT22;1158;48.750;9.078;2023-11-19T08:08:04;10.50;99.90
2300;DHT22;1158;48.750;9.078;2023-11-19T08:10:32;10.50;99.90
2300;DHT22;1158;48.750;9.078;2023-11-19T08:13:00;10.60;99.90
2300;DHT22;1158;48.750;9.078;2023-11-19T08:15:27;10.60;99.90
2300;DHT22;1158;48.750;9.078;2023-11-19T08:17:54;10.60;99.90
2300;DHT22;1158;48.750;9.078;2023-11-19T08:20:21;10.70;99.90
2300;DHT22;1158;48.750;9.078;2023-11-19T08:22:48;10.70;99.90
2300;DHT22;1158;48.750;9.078;2023-11-19T08:25:15;10.80;99.90
2300;DHT22;1158;48.750;9.078;2023-11-19T08:27:42;10.90;99.90
2300;DHT22;1158;48.750;9.078;2023-11-19T08:30:11;11.10;99.90
2300;DHT22;1158;48.750;9.078;2023-11-19T08:32:38;11.20;99.90
2300;DHT22;1158;48.750;9.078;2023-11-19T08:35:05;11.80;99.90
2300;DHT22;1158;48.750;9.078;2023-11-19T08:37:31;12.70;99.90
2300;DHT22;1158;48.750;9.078;2023-11-19T08:39:58;13.40;99.90
2300;DHT22;1158;48.750;9.078;2023-11-19T08:42:26;13.60;99.90
2300;DHT22;1158;48.750;9.078;2023-11-19T08:44:53;13.00;99.90
2300;DHT22;1158;48.750;9.078;2023-11-19T08:47:21;12.60;99.90
2300;DHT22;1158;48.750;9.078;2023-11-19T08:49:50;12.30;99.90
2300;DHT22;1158;48.750;9.078;2023-11-19T08:52:17;12.10;99.90
2300;DHT22;1158;48.750;9.078;2023-11-19T08:54:44;11.90;99.90
2300;DHT22;1158;48.750;9.078;2023-11-19T08:57:11;11.90;99.90
2300;DHT22;1158;48.750;9.078;2023-11-19T08:59:37;12.00;99.90
2300;DHT22;1158;48.750;9.078;2023-11-19T09:02:04;12.00;99.90
2300;DHT22;1158;48.750;9.078;2023-11-19T09:04:33;12.50;99.90
2300;DHT22;1158;48.750;9.078;2023-11-19T09:07:00;12.60;99.90
2300;DHT22;1158;48.750;9.078;2023-11-19T09:09:26;12.80;99.90
2300;DHT22;1158;48.750;9.078;2023-11-19T09:11:53;12.90;99.90
2300;DHT22;1158;48.750;9.078;2023-11-19T09:14:20;12.70;99.90
2300;DHT22;1158;48.750;9.078;2023-11-19T09:16:49;12.60;99.90
2300;DHT22;1158;48.750;9.078;2023-11-19T09:19:16;12.40;99.90
2300;DHT22;1158;48.750;9.078;2023-11-19T09:21:44;12.30;99.90
2300;DHT22;1158;48.750;9.078;2023-11-19T09:24:11;12.30;99.90
2300;DHT22;1158;48.750;9.078;2023-11-19T09:26:37;12.30;99.90
2300;DHT22;1158;48.750;9.078;2023-11-19T09:29:06;12.50;99.90
2300;DHT22;1158;48.750;9.078;2023-11-19T09:31:34;12.80;99.90
2300;DHT22;1158;48.750;9.078;2023-11-19T09:34:00;13.00;99.90
2300;DHT22;1158;48.750;9.078;2023-11-19T09:36:27;13.00;99.90
2300;DHT22;1158;48.750;9.078;2023-11-19T09:38:55;13.00;99.90
2300;DHT22;1158;48.750;9.078;2023-11-19T09:41:23;13.20;99.90
2300;DHT22;1158;48.750;9.078;2023-11-19T09:43:51;13.60;99.90
2300;DHT22;1158;48.750;9.078;2023-11-19T09:46:18;14.40;99.90
2300;DHT22;1158;48.750;9.078;2023-11-19T09:48:45;15.40;99.90
2300;DHT22;1158;48.750;9.078;2023-11-19T09:51:13;16.10;99.90
2300;DHT22;1158;48.750;9.078;2023-11-19T09:53:40;16.30;99.90
2300;DHT22;1158;48.750;9.078;2023-11-19T09:56:09;16.50;99.90
2300;DHT22;1158;48.750;9.078;2023-11-19T09:58:36;16.10;99.90
2300;DHT22;1158;48.750;9.078;2023-11-19T10:01:03;16.70;99.90
2300;DHT22;1158;48.750;9.078;2023-11-19T10:03:33;17.70;99.90
2300;DHT22;1158;48.750;9.078;2023-11-19T10:06:01;17.40;99.90
2300;DHT22;1158;48.750;9.078;2023-11-19T10:08:28;17.10;99.90
2300;DHT22;1158;48.750;9.078;2023-11-19T10:10:55;16.40;99.90
2300;DHT22;1158;48.750;9.078;2023-11-19T10:13:28;15.70;99.90
2300;DHT22;1158;48.750;9.078;2023-11-19T10:15:56;15.70;99.90
2300;DHT22;1158;48.750;9.078;2023-11-19T10:18:24;15.40;99.90
2300;DHT22;1158;48.750;9.078;2023-11-19T10:20:52;15.00;99.90
2300;DHT22;1158;48.750;9.078;2023-11-19T10:23:19;14.80;99.90
2300;DHT22;1158;48.750;9.078;2023-11-19T10:25:46;14.80;99.90
2300;DHT22;1158;48.750;9.078;2023-11-19T10:28:15;14.80;99.90
2300;DHT22;1158;48.750;9.078;2023-11-19T10:30:44;15.00;99.90
2300;DHT22;1158;48.750;9.078;2023-11-19T10:33:12;15.00;99.90
2300;DHT22;1158;48.750;9.078;2023-11-19T10:35:51;15.10;99.90
2300;DHT22;1158;48.750;9.078;2023-11-19T10:38:18;15.00;99.90
2300;DHT22;1158;48.750;9.078;2023-11-19T10:40:45;15.40;99.90
2300;DHT22;1158;48.750;9.078;2023-11-19T10:43:12;15.40;99.90
2300;DHT22;1158;48.750;9.078;2023-11-19T10:45:39;16.00;99.90
2300;DHT22;1158;48.750;9.078;2023-11-19T10:48:07;16.40;99.90
2300;DHT22;1158;48.750;9.078;2023-11-19T10:50:36;16.40;99.90
2300;DHT22;1158;48.750;9.078;2023-11-19T10:53:04;16.20;99.90
2300;DHT22;1158;48.750;9.078;2023-11-19T10:55:32;16.30;99.90
2300;DHT22;1158;48.750;9.078;2023-11-19T10:58:02;16.30;99.90
2300;DHT22;1158;48.750;9.078;2023-11-19T11:00:29;16.00;99.90
2300;DHT22;1158;48.750;9.078;2023-11-19T11:03:00;15.80;99.90
2300;DHT22;1158;48.750;9.078;2023-11-19T11:05:29;15.60;99.90
2300;DHT22;1158;48.750;9.078;2023-11-19T11:07:58;15.40;99.90
2300;DHT22;1158;48.750;9.078;2023-11-19T11:10:27;15.40;99.90
2300;DHT22;1158;48.750;9.078;2023-11-19T11:12:56;15.30;99.90
2300;DHT22;1158;48.750;9.078;2023-11-19T11:15:27;15.20;99.90
2300;DHT22;1158;48.750;9.078;2023-11-19T11:17:57;15.20;99.90
2300;DHT22;1158;48.750;9.078;2023-11-19T11:20:25;15.20;99.90
2300;DHT22;1158;48.750;9.078;2023-11-19T11:23:02;15.10;99.90
2300;DHT22;1158;48.750;9.078;2023-11-19T11:25:37;14.90;99.90
2300;DHT22;1158;48.750;9.078;2023-11-19T11:28:18;14.80;99.90
2300;DHT22;1158;48.750;9.078;2023-11-19T11:31:12;14.70;99.90
2300;DHT22;1158;48.750;9.078;2023-11-19T11:33:59;14.70;99.90
2300;DHT22;1158;48.750;9.078;2023-11-19T11:36:34;14.60;99.90
2300;DHT22;1158;48.750;9.078;2023-11-19T11:39:07;14.60;99.90
2300;DHT22;1158;48.750;9.078;2023-11-19T11:41:34;14.60;99.90
2300;DHT22;1158;48.750;9.078;2023-11-19T11:44:01;14.60;99.90
2300;DHT22;1158;48.750;9.078;2023-11-19T11:46:55;14.70;99.90
2300;DHT22;1158;48.750;9.078;2023-11-19T11:49:26;15.40;99.90
2300;DHT22;1158;48.750;9.078;2023-11-19T11:52:00;15.70;99.90
2300;DHT22;1158;48.750;9.078;2023-11-19T11:54:30;15.90;99.90
2300;DHT22;1158;48.750;9.078;2023-11-19T11:57:08;16.40;99.90
2300;DHT22;1158;48.750;9.078;2023-11-19T11:59:47;16.60;99.90
2300;DHT22;1158;48.750;9.078;2023-11-19T12:02:15;16.70;99.90
2300;DHT22;1158;48.750;9.078;2023-11-19T12:04:43;16.90;99.90
2300;DHT22;1158;48.750;9.078;2023-11-19T12:07:14;17.10;99.90
2300;DHT22;1158;48.750;9.078;2023-11-19T12:09:45;17.40;99.90
2300;DHT22;1158;48.750;9.078;2023-11-19T12:12:26;17.80;99.90
2300;DHT22;1158;48.750;9.078;2023-11-19T12:15:04;17.70;99.90
2300;DHT22;1158;48.750;9.078;2023-11-19T12:17:48;17.10;99.90
2300;DHT22;1158;48.750;9.078;2023-11-19T12:20:19;16.60;99.90
2300;DHT22;1158;48.750;9.078;2023-11-19T12:22:47;16.60;99.90
2300;DHT22;1158;48.750;9.078;2023-11-19T12:25:17;16.90;99.90
2300;DHT22;1158;48.750;9.078;2023-11-19T12:27:47;17.00;99.90
2300;DHT22;1158;48.750;9.078;2023-11-19T12:30:20;16.70;99.90
2300;DHT22;1158;48.750;9.078;2023-11-19T12:32:48;16.10;99.90
2300;DHT22;1158;48.750;9.078;2023-11-19T12:35:15;16.40;99.90
2300;DHT22;1158;48.750;9.078;2023-11-19T12:37:42;16.10;99.90
2300;DHT22;1158;48.750;9.078;2023-11-19T12:40:14;16.20;99.90
2300;DHT22;1158;48.750;9.078;2023-11-19T12:42:42;16.10;99.90
2300;DHT22;1158;48.750;9.078;2023-11-19T12:45:09;16.30;99.90
2300;DHT22;1158;48.750;9.078;2023-11-19T12:47:37;16.50;99.90
2300;DHT22;1158;48.750;9.078;2023-11-19T12:50:05;16.50;99.90
2300;DHT22;1158;48.750;9.078;2023-11-19T12:52:33;16.50;99.90
2300;DHT22;1158;48.750;9.078;2023-11-19T12:55:00;16.80;99.90
2300;DHT22;1158;48.750;9.078;2023-11-19T12:57:37;17.10;99.90
2300;DHT22;1158;48.750;9.078;2023-11-19T13:00:07;17.40;99.90
2300;DHT22;1158;48.750;9.078;2023-11-19T13:02:46;17.60;99.90
2300;DHT22;1158;48.750;9.078;2023-11-19T13:05:25;18.00;99.90
2300;DHT22;1158;48.750;9.078;2023-11-19T13:07:58;17.70;99.90
2300;DHT22;1158;48.750;9.078;2023-11-19T13:10:25;17.70;99.90
2300;DHT22;1158;48.750;9.078;2023-11-19T13:13:03;17.70;99.90
2300;DHT22;1158;48.750;9.078;2023-11-19T13:15:32;17.30;99.90
2300;DHT22;1158;48.750;9.078;2023-11-19T13:17:58;16.10;99.90
2300;DHT22;1158;48.750;9.078;2023-11-19T13:20:25;15.80;99.90
2300;DHT22;1158;48.750;9.078;2023-11-19T13:22:56;15.90;99.90
2300;DHT22;1158;48.750;9.078;2023-11-19T13:25:23;16.00;99.90
2300;DHT22;1158;48.750;9.078;2023-11-19T13:27:50;16.10;99.90
2300;DHT22;1158;48.750;9.078;2023-11-19T13:30:17;17.00;99.90
2300;DHT22;1158;48.750;9.078;2023-11-19T13:32:45;17.20;99.90
2300;DHT22;1158;48.750;9.078;2023-11-19T13:35:12;16.90;99.90
2300;DHT22;1158;48.750;9.078;2023-11-19T13:37:39;16.80;99.90
2300;DHT22;1158;48.750;9.078;2023-11-19T13:40:07;16.40;99.90
2300;DHT22;1158;48.750;9.078;2023-11-19T13:42:36;15.90;99.90
2300;DHT22;1158;48.750;9.078;2023-11-19T13:45:03;15.80;99.90
2300;DHT22;1158;48.750;9.078;2023-11-19T13:47:29;15.40;99.90
2300;DHT22;1158;48.750;9.078;2023-11-19T13:49:57;15.10;99.90
2300;DHT22;1158;48.750;9.078;2023-11-19T13:52:24;15.30;99.90
2300;DHT22;1158;48.750;9.078;2023-11-19T13:54:51;15.90;99.90
2300;DHT22;1158;48.750;9.078;2023-11-19T13:57:17;16.50;99.90
2300;DHT22;1158;48.750;9.078;2023-11-19T13:59:44;16.50;99.90
2300;DHT22;1158;48.750;9.078;2023-11-19T14:02:11;16.80;99.90
2300;DHT22;1158;48.750;9.078;2023-11-19T14:04:37;16.70;99.90
2300;DHT22;1158;48.750;9.078;2023-11-19T14:07:05;15.80;99.90
2300;DHT22;1158;48.750;9.078;2023-11-19T14:09:32;15.70;99.90
2300;DHT22;1158;48.750;9.078;2023-11-19T14:11:59;16.10;99.90
2300;DHT22;1158;48.750;9.078;2023-11-19T14:14:25;16.60;99.90
2300;DHT22;1158;48.750;9.078;2023-11-19T14:16:52;16.60;99.90
2300;DHT22;1158;48.750;9.078;2023-11-19T14:19:19;17.10;99.90
2300;DHT22;1158;48.750;9.078;2023-11-19T14:21:45;17.00;99.90
2300;DHT22;1158;48.750;9.078;2023-11-19T14:24:14;17.20;99.90
2300;DHT22;1158;48.750;9.078;2023-11-19T14:26:41;17.60;99.90
2300;DHT22;1158;48.750;9.078;2023-11-19T14:29:06;17.50;99.90
2300;DHT22;1158;48.750;9.078;2023-11-19T14:31:33;16.70;99.90
2300;DHT22;1158;48.750;9.078;2023-11-19T14:34:00;15.90;99.90
2300;DHT22;1158;48.750;9.078;2023-11-19T14:36:27;15.40;99.90
2300;DHT22;1158;48.750;9.078;2023-11-19T14:38:54;15.30;99.90
2300;DHT22;1158;48.750;9.078;2023-11-19T14:41:22;15.10;99.90
2300;DHT22;1158;48.750;9.078;2023-11-19T14:43:49;14.80;99.90
2300;DHT22;1158;48.750;9.078;2023-11-19T14:46:15;14.40;99.90
2300;DHT22;1158;48.750;9.078;2023-11-19T14:48:42;14.20;99.90
2300;DHT22;1158;48.750;9.078;2023-11-19T14:51:09;14.10;99.90
2300;DHT22;1158;48.750;9.078;2023-11-19T14:53:35;14.10;99.90
2300;DHT22;1158;48.750;9.078;2023-11-19T14:56:02;14.20;99.90
2300;DHT22;1158;48.750;9.078;2023-11-19T14:58:31;14.40;99.90
2300;DHT22;1158;48.750;9.078;2023-11-19T15:00:58;14.10;99.90
2300;DHT22;1158;48.750;9.078;2023-11-19T15:03:25;13.90;99.90
2300;DHT22;1158;48.750;9.078;2023-11-19T15:05:51;13.70;99.90
2300;DHT22;1158;48.750;9.078;2023-11-19T15:08:18;13.60;99.90
2300;DHT22;1158;48.750;9.078;2023-11-19T15:10:45;13.50;99.90
2300;DHT22;1158;48.750;9.078;2023-11-19T15:13:12;13.50;99.90
2300;DHT22;1158;48.750;9.078;2023-11-19T15:15:40;13.40;99.90
2300;DHT22;1158;48.750;9.078;2023-11-19T15:18:07;13.30;99.90
2300;DHT22;1158;48.750;9.078;2023-11-19T15:20:35;13.20;99.90
2300;DHT22;1158;48.750;9.078;2023-11-19T15:23:02;13.00;99.90
2300;DHT22;1158;48.750;9.078;2023-11-19T15:25:29;12.90;99.90
2300;DHT22;1158;48.750;9.078;2023-11-19T15:27:56;12.80;99.90
2300;DHT22;1158;48.750;9.078;2023-11-19T15:30:22;12.80;99.90
2300;DHT22;1158;48.750;9.078;2023-11-19T15:32:52;12.70;99.90
2300;DHT22;1158;48.750;9.078;2023-11-19T15:35:20;12.70;99.90
2300;DHT22;1158;48.750;9.078;2023-11-19T15:37:47;12.60;99.90
2300;DHT22;1158;48.750;9.078;2023-11-19T15:40:14;12.50;99.90
2300;DHT22;1158;48.750;9.078;2023-11-19T15:42:41;12.30;99.90
2300;DHT22;1158;48.750;9.078;2023-11-19T15:45:09;12.30;99.90
2300;DHT22;1158;48.750;9.078;2023-11-19T15:47:37;12.30;99.90
2300;DHT22;1158;48.750;9.078;2023-11-19T15:50:06;12.20;99.90
2300;DHT22;1158;48.750;9.078;2023-11-19T15:52:35;12.20;99.90
2300;DHT22;1158;48.750;9.078;2023-11-19T15:55:04;12.00;99.90
2300;DHT22;1158;48.750;9.078;2023-11-19T15:57:30;12.00;99.90
2300;DHT22;1158;48.750;9.078;2023-11-19T15:59:57;12.00;99.90
2300;DHT22;1158;48.750;9.078;2023-11-19T16:02:24;12.00;99.90
2300;DHT22;1158;48.750;9.078;2023-11-19T16:04:51;11.90;99.90
2300;DHT22;1158;48.750;9.078;2023-11-19T16:07:19;11.90;99.90
2300;DHT22;1158;48.750;9.078;2023-11-19T16:09:46;11.80;99.90
2300;DHT22;1158;48.750;9.078;2023-11-19T16:12:14;11.70;99.90